Time;durP1;ratioP1;P1;durP2;ratioP2;P2;SDS_P1;SDS_P2;PMS_P1;PMS_P2;Temp;Humidity;BMP_temperature;BMP_pressure;BME280_temperature;BME280_humidity;BME280_pressure;Samples;Min_cycle;Max_cycle;Signal;HPM_P1;HPM_P2
2023/01/28 04:38:14;;;;;;;12.00;10.13;;;;;;;3.95;70.64;101093.69;5040928;22;20095;-78
2023/01/28 04:40:40;;;;;;;12.07;10.68;;;;;;;3.92;70.21;101097.16;5013418;28;20080;-77
2023/01/28 04:43:07;;;;;;;15.38;11.57;;;;;;;3.88;70.20;101101.56;5031210;28;20082;-77
2023/01/28 04:45:34;;;;;;;14.25;11.07;;;;;;;3.87;69.96;101093.75;5030869;28;20084;-77
2023/01/28 04:48:00;;;;;;;12.80;10.98;;;;;;;3.86;69.96;101110.25;5030771;28;20116;-78
2023/01/28 04:50:26;;;;;;;16.55;12.27;;;;;;;3.85;70.05;101113.75;5031073;28;20066;-77
2023/01/28 04:52:53;;;;;;;13.43;11.40;;;;;;;3.82;69.61;101112.03;5030891;28;20577;-78
2023/01/28 04:55:19;;;;;;;13.88;12.38;;;;;;;3.80;69.98;101116.38;5030728;28;20145;-77
2023/01/28 04:57:47;;;;;;;14.75;11.43;;;;;;;3.76;69.96;101110.31;5030770;28;20099;-78
2023/01/28 05:00:13;;;;;;;13.60;12.05;;;;;;;3.74;69.85;101109.44;5030657;28;20569;-77
2023/01/28 05:02:40;;;;;;;17.60;12.55;;;;;;;3.73;70.10;101102.53;5030600;28;20061;-77
2023/01/28 05:05:07;;;;;;;15.65;12.63;;;;;;;3.72;69.84;101111.22;5030728;28;20111;-77
2023/01/28 05:07:35;;;;;;;15.10;13.18;;;;;;;3.72;70.06;101106.00;5030593;28;20065;-77
2023/01/28 05:10:02;;;;;;;14.45;12.80;;;;;;;3.72;70.00;101111.22;5030604;28;20127;-78
2023/01/28 05:12:29;;;;;;;15.93;12.18;;;;;;;3.71;70.26;101108.63;5030592;28;20119;-78
2023/01/28 05:14:55;;;;;;;14.15;11.50;;;;;;;3.72;69.87;101113.81;5012637;28;20053;-77
2023/01/28 05:17:22;;;;;;;13.35;11.18;;;;;;;3.72;69.88;101116.44;5030118;28;20099;-77
2023/01/28 05:19:48;;;;;;;16.30;12.82;;;;;;;3.74;69.77;101124.25;5012906;28;20069;-77
2023/01/28 05:22:14;;;;;;;15.18;12.25;;;;;;;3.72;70.06;101125.97;5030518;28;20506;-77
2023/01/28 05:24:41;;;;;;;16.30;12.15;;;;;;;3.73;70.13;101132.91;5030431;28;20089;-77
2023/01/28 05:27:07;;;;;;;16.05;12.85;;;;;;;3.74;70.25;101125.09;5029864;28;20089;-78
2023/01/28 05:29:34;;;;;;;16.58;12.43;;;;;;;3.73;70.50;101122.47;5030170;28;20111;-77
2023/01/28 05:32:00;;;;;;;16.30;12.48;;;;;;;3.74;69.92;101119.88;5012732;28;20053;-78
2023/01/28 05:34:26;;;;;;;15.32;12.07;;;;;;;3.74;69.65;101117.25;5029997;28;20053;-78
2023/01/28 05:36:53;;;;;;;13.80;12.18;;;;;;;3.72;69.49;101119.03;5029542;28;20463;-77
2023/01/28 05:39:19;;;;;;;16.92;12.88;;;;;;;3.71;69.26;101112.09;5030211;28;20089;-77
2023/01/28 05:41:45;;;;;;;14.05;11.93;;;;;;;3.70;69.24;101104.28;5030008;28;20105;-77
2023/01/28 05:44:12;;;;;;;15.10;11.60;;;;;;;3.68;69.15;101099.09;5030152;28;20140;-77
2023/01/28 05:46:44;;;;;;;14.65;12.82;;;;;;;3.67;69.06;101102.56;5029632;28;20053;-77
2023/01/28 05:49:12;;;;;;;18.42;13.93;;;;;;;3.65;69.64;101091.28;5029260;28;20108;-78
2023/01/28 05:51:39;;;;;;;15.73;13.57;;;;;;;3.64;69.57;101094.78;5029669;28;20496;-78
2023/01/28 05:54:06;;;;;;;15.50;13.00;;;;;;;3.63;69.53;101100.88;5029808;28;20108;-77
2023/01/28 05:56:33;;;;;;;17.95;13.80;;;;;;;3.62;68.95;101093.91;5029264;28;20115;-77
2023/01/28 05:59:00;;;;;;;15.52;12.73;;;;;;;3.61;68.81;101095.66;5012438;28;20306;-77
2023/01/28 06:01:26;;;;;;;16.73;13.93;;;;;;;3.57;68.84;101091.34;5029770;28;20122;-77
2023/01/28 06:03:53;;;;;;;19.55;15.73;;;;;;;3.56;69.19;101094.84;5029896;28;20053;-77
2023/01/28 06:06:19;;;;;;;19.13;15.07;;;;;;;3.55;69.32;101093.09;5029456;28;20467;-77
2023/01/28 06:08:46;;;;;;;18.67;14.32;;;;;;;3.56;69.31;101091.34;5029563;28;20085;-77
2023/01/28 06:11:12;;;;;;;19.17;14.55;;;;;;;3.54;69.20;101096.56;5029511;28;20092;-78
2023/01/28 06:13:40;;;;;;;20.33;14.90;;;;;;;3.54;69.06;101098.31;5029270;28;20058;-77
2023/01/28 06:16:07;;;;;;;16.65;14.05;;;;;;;3.55;68.87;101097.44;5029155;28;20068;-77
2023/01/28 06:18:33;;;;;;;17.52;14.50;;;;;;;3.54;68.98;101091.34;5029394;28;20072;-77
2023/01/28 06:20:59;;;;;;;18.25;14.82;;;;;;;3.54;69.08;101100.94;5029590;28;20111;-77
2023/01/28 06:23:26;;;;;;;17.38;14.25;;;;;;;3.54;69.00;101101.78;5029414;28;20085;-78
2023/01/28 06:25:54;;;;;;;18.05;14.68;;;;;;;3.54;68.72;101101.78;5029329;28;20061;-78
2023/01/28 06:28:20;;;;;;;19.52;14.55;;;;;;;3.53;69.05;101100.06;5029321;28;20064;-78
2023/01/28 06:30:48;;;;;;;18.80;14.90;;;;;;;3.52;68.68;101096.56;5029563;28;20115;-77
2023/01/28 06:33:15;;;;;;;19.38;15.05;;;;;;;3.52;68.85;101093.97;5029271;28;20140;-77
2023/01/28 06:35:41;;;;;;;17.38;14.30;;;;;;;3.52;68.68;101098.34;5029377;28;20088;-78
2023/01/28 06:38:08;;;;;;;20.60;14.77;;;;;;;3.50;68.73;101100.94;5029158;28;20478;-78
2023/01/28 06:40:34;;;;;;;20.13;15.25;;;;;;;3.49;69.08;101112.22;5011687;28;20064;-80
2023/01/28 06:43:01;;;;;;;21.65;15.90;;;;;;;3.49;68.65;101114.84;5029387;28;20053;-77
2023/01/28 06:45:27;;;;;;;19.92;16.08;;;;;;;3.48;68.87;101105.28;5029214;28;20049;-78
2023/01/28 06:47:54;;;;;;;23.20;15.82;;;;;;;3.49;68.56;101109.63;5029141;28;20096;-78
2023/01/28 06:50:20;;;;;;;19.63;15.68;;;;;;;3.49;68.47;101106.16;5029327;28;20069;-78
2023/01/28 06:52:46;;;;;;;19.20;15.15;;;;;;;3.49;68.11;101109.63;5029226;28;20049;-77
2023/01/28 06:55:13;;;;;;;22.00;15.63;;;;;;;3.50;68.12;101115.69;5029435;28;20089;-78
2023/01/28 06:57:40;;;;;;;20.75;15.90;;;;;;;3.49;68.62;101116.56;5028948;28;20088;-77
2023/01/28 07:00:09;;;;;;;22.05;15.52;;;;;;;3.47;67.71;101121.78;5031285;28;20049;-77
2023/01/28 07:02:36;;;;;;;20.73;15.77;;;;;;;3.45;67.79;101122.66;5033254;28;20067;-78
2023/01/28 07:05:04;;;;;;;20.80;16.02;;;;;;;3.41;67.69;101127.03;5033071;28;20053;-78
2023/01/28 07:07:30;;;;;;;21.63;16.02;;;;;;;3.38;67.92;101127.03;5032661;28;20084;-78
2023/01/28 07:09:57;;;;;;;22.17;16.73;;;;;;;3.36;67.88;101120.94;5033198;28;20093;-78
2023/01/28 07:12:23;;;;;;;20.30;15.52;;;;;;;3.35;67.85;101121.84;5015296;28;20092;-77
2023/01/28 07:14:49;;;;;;;20.65;15.57;;;;;;;3.32;68.01;101124.47;5032487;28;20557;-77
2023/01/28 07:17:16;;;;;;;22.08;16.35;;;;;;;3.31;68.37;101114.91;5032750;28;20053;-77
2023/01/28 07:19:42;;;;;;;20.50;15.95;;;;;;;3.29;67.87;101119.28;5032839;28;20107;-79
2023/01/28 07:22:08;;;;;;;23.95;16.77;;;;;;;3.29;67.69;101127.06;5032699;28;20076;-78
2023/01/28 07:24:35;;;;;;;23.90;17.02;;;;;;;3.28;67.99;101125.34;5032813;28;20097;-78
2023/01/28 07:27:02;;;;;;;20.92;16.30;;;;;;;3.28;67.92;101125.34;5032383;28;20394;-78
2023/01/28 07:29:29;;;;;;;20.42;15.93;;;;;;;3.28;68.12;101135.75;5033000;28;20107;-79
2023/01/28 07:31:55;;;;;;;22.00;15.68;;;;;;;3.28;68.16;101135.75;5032744;28;20053;-78
2023/01/28 07:34:21;;;;;;;22.50;16.02;;;;;;;3.28;68.54;101149.63;5032693;28;20057;-79
2023/01/28 07:36:48;;;;;;;23.92;17.70;;;;;;;3.28;68.56;101151.38;5031912;28;20057;-79
2023/01/28 07:39:14;;;;;;;21.90;16.27;;;;;;;3.30;68.71;101154.81;5032564;28;20111;-78
2023/01/28 07:41:40;;;;;;;25.33;17.30;;;;;;;3.32;68.73;101153.09;5032555;28;20053;-78
2023/01/28 07:44:07;;;;;;;25.88;18.10;;;;;;;3.33;68.83;101158.28;5032296;28;20057;-78
2023/01/28 07:46:33;;;;;;;23.98;17.65;;;;;;;3.34;68.31;101160.03;5032001;28;20062;-78
2023/01/28 07:48:59;;;;;;;23.80;17.90;;;;;;;3.35;68.49;101159.16;5032213;28;20466;-78
2023/01/28 07:51:26;;;;;;;22.10;17.13;;;;;;;3.37;68.70;101156.53;5031935;28;20065;-78
2023/01/28 07:53:52;;;;;;;23.67;17.83;;;;;;;3.38;68.68;101159.13;5032365;28;20089;-78
2023/01/28 07:56:18;;;;;;;25.13;17.63;;;;;;;3.39;68.89;101178.22;5032163;28;20111;-78
2023/01/28 07:58:48;;;;;;;33.47;19.63;;;;;;;3.40;67.72;101177.31;5032368;28;20108;-79
2023/01/28 08:01:15;;;;;;;26.80;18.40;;;;;;;3.44;68.62;101167.78;5031772;28;20496;-79
2023/01/28 08:03:41;;;;;;;25.40;18.58;;;;;;;3.44;68.14;101167.78;5031186;28;20101;-79
2023/01/28 08:06:08;;;;;;;26.83;19.30;;;;;;;3.44;68.37;101186.84;5027697;28;20065;-79
2023/01/28 08:08:34;;;;;;;26.25;19.30;;;;;;;3.46;68.47;101190.34;5031039;28;20108;-79
2023/01/28 08:11:07;;;;;;;28.02;19.83;;;;;;;3.48;67.62;101198.16;5029971;28;20108;-79
2023/01/28 08:13:34;;;;;;;28.35;19.60;;;;;;;3.51;68.78;101204.19;5031672;28;20057;-79
2023/01/28 08:16:01;;;;;;;25.55;19.52;;;;;;;3.55;68.45;101212.00;5031389;28;20100;-79
2023/01/28 08:18:28;;;;;;;26.02;18.60;;;;;;;3.57;68.57;101205.03;5013782;28;20064;-79
2023/01/28 08:20:55;;;;;;;31.02;20.52;;;;;;;3.60;68.45;101212.84;5031904;28;20065;-79
2023/01/28 08:23:22;;;;;;;27.23;20.15;;;;;;;3.61;68.64;101206.75;5029469;28;20108;-79
2023/01/28 08:25:49;;;;;;;30.50;20.10;;;;;;;3.64;68.14;101210.22;5021572;28;20506;-79
2023/01/28 08:28:16;;;;;;;29.15;19.38;;;;;;;3.64;68.19;101204.16;5028822;28;20093;-79
2023/01/28 08:30:43;;;;;;;26.45;20.10;;;;;;;3.67;68.24;101221.50;5030810;28;20080;-78
2023/01/28 08:33:12;;;;;;;25.52;18.92;;;;;;;3.68;67.79;101218.88;5031269;28;20148;-78
2023/01/28 08:35:39;;;;;;;26.00;19.00;;;;;;;3.68;67.77;101224.09;5030866;28;20143;-79
2023/01/28 08:38:06;;;;;;;26.27;19.63;;;;;;;3.71;68.01;101224.09;5013411;28;20085;-79
2023/01/28 08:40:33;;;;;;;25.35;18.67;;;;;;;3.72;68.52;101215.41;5031293;28;20061;-78
2023/01/28 08:43:00;;;;;;;28.20;20.55;;;;;;;3.75;68.28;101224.94;5031180;28;20105;-79
2023/01/28 08:45:27;;;;;;;27.65;19.95;;;;;;;3.74;67.97;101229.25;5030893;28;20119;-79
2023/01/28 08:47:56;;;;;;;26.05;19.63;;;;;;;3.77;67.68;101230.97;5031149;28;20115;-79
2023/01/28 08:50:26;;;;;;;26.40;19.58;;;;;;;3.78;68.17;101217.94;5013489;28;20060;-78
2023/01/28 08:52:57;;;;;;;27.42;20.17;;;;;;;3.79;67.10;101226.66;5013321;28;20084;-79
2023/01/28 08:55:25;;;;;;;27.38;19.58;;;;;;;3.82;68.28;101237.06;5030759;28;20103;-78
2023/01/28 08:57:52;;;;;;;27.25;19.98;;;;;;;3.84;68.66;101237.03;5030677;28;20341;-78
2023/01/28 09:00:19;;;;;;;28.23;20.50;;;;;;;3.85;68.33;101233.56;5013261;28;20089;-78
2023/01/28 09:02:46;;;;;;;27.90;19.52;;;;;;;3.87;68.23;101237.03;5030637;28;20508;-78
2023/01/28 09:05:14;;;;;;;27.38;19.17;;;;;;;3.87;68.15;101244.84;5030641;28;20049;-79
2023/01/28 09:07:40;;;;;;;25.30;18.35;;;;;;;3.87;68.17;101247.44;5030573;28;20081;-78
2023/01/28 09:10:08;;;;;;;22.50;17.75;;;;;;;3.88;68.06;101256.97;5030656;28;20561;-79
2023/01/28 09:12:35;;;;;;;23.67;18.55;;;;;;;3.88;67.76;101259.59;5012733;28;20053;-79
2023/01/28 09:15:02;;;;;;;22.27;17.38;;;;;;;3.89;67.78;101256.97;5030502;28;20470;-79
2023/01/28 09:17:28;;;;;;;21.63;17.10;;;;;;;3.89;68.12;101243.94;5030669;28;20486;-79
2023/01/28 09:19:55;;;;;;;23.95;17.85;;;;;;;3.91;67.77;101241.34;5030657;28;20077;-78
2023/01/28 09:22:21;;;;;;;22.73;16.92;;;;;;;3.92;67.99;101245.66;5030152;28;20057;-79
2023/01/28 09:24:47;;;;;;;23.00;17.60;;;;;;;3.93;68.33;101226.59;5030374;28;20084;-79
2023/01/28 09:27:14;;;;;;;20.15;14.90;;;;;;;3.97;68.10;101236.13;5029875;28;20089;-78
2023/01/28 09:29:40;;;;;;;20.70;15.85;;;;;;;4.02;68.23;101236.06;5030516;28;20061;-78
2023/01/28 09:32:07;;;;;;;20.50;16.25;;;;;;;4.07;68.39;101233.44;5030494;28;20057;-79
2023/01/28 09:34:33;;;;;;;20.13;16.45;;;;;;;4.12;68.07;101247.31;5012582;28;20080;-78
2023/01/28 09:37:00;;;;;;;20.38;16.42;;;;;;;4.16;68.04;101246.41;5029870;28;20084;-78
2023/01/28 09:39:29;;;;;;;20.27;15.93;;;;;;;4.20;67.87;101242.03;5012630;28;20144;-78
2023/01/28 09:42:14;;;;;;;20.55;16.38;;;;;;;4.21;64.99;101251.59;5030069;28;20076;-78
2023/01/28 09:44:52;;;;;;;20.65;16.35;;;;;;;4.27;66.53;101260.22;5030055;28;20123;-78
2023/01/28 09:47:42;;;;;;;16.95;13.80;;;;;;;4.29;64.82;101242.84;5029968;28;20127;-78
2023/01/28 09:50:38;;;;;;;19.38;13.45;;;;;;;4.36;66.43;101243.69;5030092;28;20551;-79
2023/01/28 09:53:14;;;;;;;18.02;12.30;;;;;;;4.43;66.21;101247.09;5026053;28;20092;-79
2023/01/28 09:55:53;;;;;;;17.20;12.63;;;;;;;4.47;65.71;101251.41;5029604;28;20080;-79
2023/01/28 09:58:19;;;;;;;15.23;12.07;;;;;;;4.54;68.02;101255.72;5029561;28;20496;-79
2023/01/28 10:01:03;;;;;;;17.10;12.32;;;;;;;4.57;65.32;101260.91;5028376;28;20476;-78
2023/01/28 10:03:35;;;;;;;14.27;11.93;;;;;;;4.66;68.03;101266.91;5029870;28;20061;-79
2023/01/28 10:06:13;;;;;;;15.13;11.85;;;;;;;4.69;65.36;101275.59;5029509;28;20046;-78
2023/01/28 10:09:04;;;;;;;15.38;12.05;;;;;;;4.75;65.46;101271.22;5029567;28;20096;-78
2023/01/28 10:11:39;;;;;;;14.57;12.00;;;;;;;4.80;65.66;101262.47;5011829;28;20569;-78
2023/01/28 10:14:29;;;;;;;18.38;13.45;;;;;;;4.82;64.45;101271.13;5029513;28;20088;-79
2023/01/28 10:17:15;;;;;;;15.15;12.80;;;;;;;4.88;64.61;101267.63;5029362;28;20111;-79
2023/01/28 10:19:47;;;;;;;15.82;11.98;;;;;;;4.95;65.80;101271.91;5029743;28;20491;-78
2023/01/28 10:22:29;;;;;;;17.45;12.13;;;;;;;4.97;64.40;101264.03;5029585;28;20049;-78
2023/01/28 10:25:05;;;;;;;14.75;11.88;;;;;;;5.05;67.45;101275.28;5029378;28;20111;-78
2023/01/28 10:27:34;;;;;;;14.07;10.68;;;;;;;5.09;67.26;101269.16;5029262;28;20507;-78
2023/01/28 10:30:16;;;;;;;15.90;11.95;;;;;;;5.14;64.75;101273.47;5029580;28;20057;-78
2023/01/28 10:32:51;;;;;;;14.35;10.68;;;;;;;5.18;65.38;101276.03;5029547;28;20084;-78
2023/01/28 10:35:18;;;;;;;14.93;11.60;;;;;;;5.24;66.73;101263.81;5034200;28;20511;-78
2023/01/28 10:37:45;;;;;;;14.23;11.80;;;;;;;5.26;67.09;101251.59;5026861;22;20545;-79
2023/01/28 10:40:15;;;;;;;15.93;11.88;;;;;;;5.27;66.20;101255.94;5015466;28;20057;-79
2023/01/28 10:42:43;;;;;;;13.50;11.50;;;;;;;5.30;66.95;101248.94;5016957;28;20634;-79
2023/01/28 10:45:19;;;;;;;16.67;11.80;;;;;;;5.30;64.51;101248.94;5016919;28;20060;-79
2023/01/28 10:47:53;;;;;;;14.73;11.55;;;;;;;5.37;65.68;101241.03;5015519;28;20503;-79
2023/01/28 10:50:23;;;;;;;14.35;10.82;;;;;;;5.43;66.27;101249.69;5017078;28;20144;-80
2023/01/28 10:52:59;;;;;;;14.35;11.30;;;;;;;5.47;64.79;101242.66;5016943;28;20046;-79
2023/01/28 10:55:30;;;;;;;15.23;11.65;;;;;;;5.55;65.65;101253.00;5015517;28;20409;-80
2023/01/28 10:57:58;;;;;;;15.77;12.00;;;;;;;5.61;66.81;101229.44;4997475;28;20050;-79
2023/01/28 11:00:29;;;;;;;12.95;11.00;;;;;;;5.66;65.67;101225.03;4980203;28;20054;-79
2023/01/28 11:02:56;;;;;;;12.85;10.43;;;;;;;5.70;66.77;101218.88;4997495;28;20062;-80
2023/01/28 11:05:28;;;;;;;15.43;11.73;;;;;;;5.71;65.05;101217.09;4997221;28;20503;-79
2023/01/28 11:08:14;;;;;;;14.70;11.32;;;;;;;5.73;64.15;101215.34;4997367;28;20078;-80
2023/01/28 11:10:42;;;;;;;13.52;11.10;;;;;;;5.82;66.94;101209.13;4997389;28;20052;-79
2023/01/28 11:13:25;;;;;;;14.65;10.75;;;;;;;5.85;64.16;101204.75;4997300;28;20070;-79
2023/01/28 11:16:03;;;;;;;14.15;10.77;;;;;;;5.97;67.01;101202.81;4997046;28;20101;-79
2023/01/28 11:18:33;;;;;;;12.85;10.35;;;;;;;6.04;66.63;101188.81;4995881;28;20062;-79
2023/01/28 11:21:03;;;;;;;13.00;10.57;;;;;;;6.15;67.04;101200.84;4997205;28;20116;-79
2023/01/28 11:23:33;;;;;;;15.38;11.05;;;;;;;6.28;67.48;101201.53;4996023;28;20065;-79
2023/01/28 11:26:04;;;;;;;12.68;10.65;;;;;;;6.44;68.03;101196.91;4979639;28;20058;-80
2023/01/28 11:28:31;;;;;;;15.73;11.68;;;;;;;6.60;68.48;101190.53;4997249;28;20154;-79
2023/01/28 11:31:02;;;;;;;14.18;11.15;;;;;;;6.81;67.73;101201.53;4997247;28;20124;-79
2023/01/28 11:33:36;;;;;;;13.27;10.73;;;;;;;7.02;66.20;101191.53;4996991;28;20050;-79
2023/01/28 11:36:07;;;;;;;13.43;10.93;;;;;;;7.23;66.36;101189.41;4995580;28;20116;-79
2023/01/28 11:38:34;;;;;;;13.40;10.80;;;;;;;7.37;66.18;101174.25;4997095;28;20054;-79
2023/01/28 11:41:00;;;;;;;14.68;10.93;;;;;;;7.43;65.88;101173.28;4996889;28;20058;-79
2023/01/28 11:43:29;;;;;;;14.23;11.23;;;;;;;7.51;66.10;101162.66;4997248;28;20093;-79
2023/01/28 11:45:59;;;;;;;13.63;10.70;;;;;;;7.63;67.10;101148.41;4995459;28;20521;-79
2023/01/28 11:48:44;;;;;;;12.88;10.10;;;;;;;7.77;63.31;101135.84;4993899;28;20149;-79
2023/01/28 11:51:32;;;;;;;13.57;10.38;;;;;;;8.03;65.42;101126.50;4993857;28;20062;-79
2023/01/28 11:54:03;;;;;;;11.90;9.82;;;;;;;8.45;68.85;101129.88;4994000;28;20058;-80
2023/01/28 11:56:39;;;;;;;12.00;9.90;;;;;;;8.91;67.39;101117.28;4993752;28;20054;-80
2023/01/28 11:59:31;;;;;;;12.70;10.32;;;;;;;9.39;64.59;101109.78;4993815;28;20062;-79
2023/01/28 12:02:00;;;;;;;13.68;11.05;;;;;;;9.88;70.26;101106.53;4976222;28;20065;-80
2023/01/28 12:04:32;;;;;;;13.45;10.40;;;;;;;10.28;69.18;101110.47;5003845;28;20430;-80
2023/01/28 12:07:20;;;;;;;11.88;10.65;;;;;;;10.69;61.74;101111.72;5008783;28;20125;-79
2023/01/28 12:09:55;;;;;;;12.43;11.13;;;;;;;11.09;60.63;101135.78;4994562;28;20058;-79
2023/01/28 12:12:51;;;;;;;13.07;10.65;;;;;;;11.31;58.40;101127.94;5012594;28;20632;-79
2023/01/28 12:15:48;;;;;;;11.77;10.57;;;;;;;11.37;56.48;101120.69;4989506;28;20058;-79
2023/01/28 12:18:30;;;;;;;13.13;10.27;;;;;;;11.35;59.81;101118.13;4993541;28;20108;-79
2023/01/28 12:21:09;;;;;;;12.00;10.80;;;;;;;11.15;56.00;101116.25;4976286;28;20149;-79
2023/01/28 12:23:57;;;;;;;12.52;10.55;;;;;;;10.97;56.64;101117.78;4992228;28;20061;-80
2023/01/28 12:26:26;;;;;;;12.35;11.05;;;;;;;10.84;57.07;101118.22;4993310;28;20057;-80
2023/01/28 12:29:00;;;;;;;11.60;10.07;;;;;;;10.69;58.05;101111.72;4993082;28;20145;-80
2023/01/28 12:31:34;;;;;;;12.15;9.95;;;;;;;10.55;57.40;101120.97;4992872;28;20466;-79
2023/01/28 12:34:16;;;;;;;10.07;9.00;;;;;;;10.49;57.60;101101.91;4992985;28;20129;-79
2023/01/28 12:36:57;;;;;;;10.15;9.13;;;;;;;10.50;60.56;101119.44;4992724;28;20113;-80
2023/01/28 12:39:24;;;;;;;10.90;9.57;;;;;;;10.41;60.15;101141.63;4992804;28;20050;-79
2023/01/28 12:42:19;;;;;;;11.68;9.00;;;;;;;10.20;55.84;101138.81;4993180;28;20054;-80
2023/01/28 12:44:52;;;;;;;10.90;8.77;;;;;;;10.00;57.51;101127.19;4992834;28;20058;-80
2023/01/28 12:47:27;;;;;;;12.45;9.13;;;;;;;9.76;56.93;101123.56;4991286;28;20058;-79
2023/01/28 12:50:00;;;;;;;9.85;8.50;;;;;;;9.55;57.63;101135.59;4992352;28;20055;-80
2023/01/28 12:52:32;;;;;;;10.25;8.25;;;;;;;9.33;58.42;101129.22;4992717;28;20050;-79
2023/01/28 12:55:27;;;;;;;11.32;8.73;;;;;;;9.11;57.28;101132.47;4992639;28;20116;-79
2023/01/28 12:57:57;;;;;;;11.80;9.07;;;;;;;8.94;59.13;101137.34;4991928;28;20054;-79
2023/01/28 13:00:28;;;;;;;10.52;8.50;;;;;;;8.78;58.80;101127.25;4992692;28;20504;-79
2023/01/28 13:03:18;;;;;;;10.68;8.73;;;;;;;8.60;57.22;101120.75;4992772;28;20070;-79
2023/01/28 13:05:56;;;;;;;9.90;8.05;;;;;;;8.49;57.78;101123.63;4992373;28;20062;-79
2023/01/28 13:08:26;;;;;;;12.50;9.32;;;;;;;8.39;59.95;101125.63;4992330;28;20549;-79
2023/01/28 13:10:55;;;;;;;11.18;9.15;;;;;;;8.28;60.18;101128.53;4992364;28;20085;-79
2023/01/28 13:13:33;;;;;;;13.73;9.77;;;;;;;8.14;58.34;101134.09;4975115;28;20109;-80
2023/01/28 13:16:01;;;;;;;13.70;10.18;;;;;;;8.06;60.51;101136.06;4992008;28;20542;-79
2023/01/28 13:18:43;;;;;;;12.50;10.10;;;;;;;7.90;57.50;101138.19;4990981;28;20077;-80
2023/01/28 13:21:24;;;;;;;13.82;10.35;;;;;;;7.78;58.23;101134.94;4992129;28;20480;-80
2023/01/28 13:24:08;;;;;;;13.00;9.88;;;;;;;7.62;57.98;101121.34;4992183;28;20389;-80
2023/01/28 13:26:42;;;;;;;14.48;10.55;;;;;;;7.53;58.87;101118.94;4992128;28;20105;-79
2023/01/28 13:29:20;;;;;;;12.65;10.27;;;;;;;7.41;59.06;101110.44;4975015;28;20058;-80
2023/01/28 13:31:49;;;;;;;14.57;10.90;;;;;;;7.37;61.41;101111.38;4992187;28;20059;-80
2023/01/28 13:34:49;;;;;;;13.27;10.65;;;;;;;7.27;59.01;101092.41;4974902;28;20090;-80
2023/01/28 13:37:39;;;;;;;14.23;11.00;;;;;;;7.22;59.15;101088.16;4991457;28;20062;-80
2023/01/28 13:40:12;;;;;;;14.80;11.23;;;;;;;7.20;59.79;101084.69;4992084;28;20062;-80
2023/01/28 13:42:39;;;;;;;18.27;11.77;;;;;;;7.20;62.49;101082.06;4991884;28;20503;-80
2023/01/28 13:45:15;;;;;;;15.80;11.90;;;;;;;7.15;59.48;101084.81;4991792;28;20146;-79
2023/01/28 13:47:49;;;;;;;13.88;11.27;;;;;;;7.15;61.10;101088.28;4991909;28;20066;-80
2023/01/28 13:50:40;;;;;;;14.43;11.38;;;;;;;7.12;58.74;101072.66;4991633;28;20094;-79
2023/01/28 13:53:40;;;;;;;15.70;11.60;;;;;;;7.08;58.76;101076.22;4991862;28;20061;-80
2023/01/28 13:56:18;;;;;;;14.13;10.90;;;;;;;7.02;59.44;101061.50;4991504;28;20202;-79
2023/01/28 13:59:03;;;;;;;18.23;12.60;;;;;;;6.92;59.05;101067.84;4991453;28;20483;-79
2023/01/28 14:01:50;;;;;;;16.17;12.07;;;;;;;6.84;59.94;101065.34;4991653;28;20061;-80
2023/01/28 14:04:48;;;;;;;15.50;11.88;;;;;;;6.72;59.13;101060.38;4991611;28;20050;-79
2023/01/28 14:07:42;;;;;;;16.10;11.57;;;;;;;6.62;60.29;101076.25;4991672;28;20061;-79
2023/01/28 14:10:17;;;;;;;;;;;;;;;6.51;59.30;101086.91;4991167;28;20113;-80
2023/01/28 14:12:51;;;;;;;14.45;11.30;;;;;;;6.49;62.21;101095.69;4991478;28;19926;-79
2023/01/28 14:15:48;;;;;;;16.63;11.20;;;;;;;6.35;60.11;101102.03;4991222;28;20117;-80
2023/01/28 14:18:21;;;;;;;16.27;11.43;;;;;;;6.32;60.76;101103.84;4991436;28;20051;-80
2023/01/28 14:20:48;;;;;;;15.00;11.63;;;;;;;6.29;62.75;101119.56;4973949;28;20503;-80
2023/01/28 14:23:18;;;;;;;16.88;12.20;;;;;;;6.22;62.21;101114.47;4991439;28;20060;-80
2023/01/28 14:26:13;;;;;;;15.40;12.00;;;;;;;6.16;60.12;101111.09;4991082;28;20094;-79
2023/01/28 14:28:59;;;;;;;17.35;12.25;;;;;;;6.10;62.47;101110.28;4988142;28;20050;-80
2023/01/28 14:31:31;;;;;;;18.83;12.88;;;;;;;6.03;61.98;101113.00;4991536;28;20066;-79
2023/01/28 14:34:18;;;;;;;14.75;11.45;;;;;;;5.95;61.41;101111.34;4991247;28;20051;-79
2023/01/28 14:36:47;;;;;;;15.68;12.13;;;;;;;5.93;62.68;101112.28;4991011;28;20132;-80
2023/01/28 14:39:42;;;;;;;16.75;12.20;;;;;;;5.85;61.05;101115.88;4991240;28;20058;-79
2023/01/28 14:42:28;;;;;;;17.27;12.07;;;;;;;5.84;61.13;101118.53;4988174;28;20055;-80
2023/01/28 14:45:38;;;;;;;15.13;11.25;;;;;;;5.80;61.28;101112.47;4991055;28;20570;-80
2023/01/28 14:48:18;;;;;;;15.65;11.00;;;;;;;5.81;62.17;101114.22;4977993;28;20086;-80
2023/01/28 14:51:06;;;;;;;18.65;12.57;;;;;;;5.76;61.28;101097.75;4989746;28;20141;-79
2023/01/28 14:53:57;;;;;;;17.27;12.02;;;;;;;5.72;60.56;101096.91;4991135;28;20097;-79
2023/01/28 14:56:35;;;;;;;15.57;11.30;;;;;;;5.73;63.41;101101.25;4973002;28;20559;-79
2023/01/28 14:59:14;;;;;;;15.63;11.25;;;;;;;5.66;61.96;101111.81;4990960;28;20058;-79
2023/01/28 15:01:48;;;;;;;16.05;11.48;;;;;;;5.61;61.86;101122.34;5006785;28;20576;-80
2023/01/28 15:04:44;;;;;;;14.80;11.15;;;;;;;5.56;61.15;101126.75;4993588;28;20139;-79
2023/01/28 15:07:22;;;;;;;17.27;11.15;;;;;;;5.53;61.86;101117.22;4997901;28;20054;-79
2023/01/28 15:10:36;;;;;;;15.38;10.75;;;;;;;5.52;61.59;101132.91;5010731;28;20096;-79
2023/01/28 15:13:12;;;;;;;15.18;10.45;;;;;;;5.54;63.22;101133.75;5005068;28;20157;-79
2023/01/28 15:15:40;;;;;;;14.88;10.30;;;;;;;5.53;64.37;101130.25;5010152;28;20061;-79
2023/01/28 15:18:32;;;;;;;16.27;10.45;;;;;;;5.50;61.68;101124.22;5010513;28;20058;-79
2023/01/28 15:21:00;;;;;;;13.68;9.88;;;;;;;5.54;63.53;101121.56;5005177;28;20054;-79
2023/01/28 15:23:32;;;;;;;14.90;10.70;;;;;;;5.51;62.87;101116.38;5013972;28;20086;-79
2023/01/28 15:26:20;;;;;;;14.65;10.65;;;;;;;5.46;61.79;101124.25;5013880;28;20068;-79
2023/01/28 15:28:48;;;;;;;14.27;10.68;;;;;;;5.47;63.79;101135.59;5013855;28;20060;-79
2023/01/28 15:31:21;;;;;;;15.50;11.00;;;;;;;5.43;62.94;101142.59;5013906;28;20115;-79
2023/01/28 15:34:12;;;;;;;15.65;11.15;;;;;;;5.40;61.98;101146.97;5013851;28;20085;-79
2023/01/28 15:36:39;;;;;;;15.00;11.13;;;;;;;5.43;63.99;101141.72;5013419;28;20553;-79
2023/01/28 15:39:39;;;;;;;16.65;11.05;;;;;;;5.38;62.73;101143.53;5014085;28;20054;-79
2023/01/28 15:42:28;;;;;;;16.48;10.52;;;;;;;5.35;62.62;101147.91;5013171;28;20061;-79
2023/01/28 15:44:57;;;;;;;15.10;10.95;;;;;;;5.39;64.20;101153.09;4995309;28;20112;-79
2023/01/28 15:47:32;;;;;;;14.15;10.48;;;;;;;5.34;62.21;101160.97;5012247;28;20064;-80
2023/01/28 15:50:03;;;;;;;16.45;10.88;;;;;;;5.33;63.61;101162.75;5012329;28;20054;-80
2023/01/28 15:52:36;;;;;;;14.15;10.35;;;;;;;5.30;62.82;101160.16;5012162;28;20061;-79
2023/01/28 15:55:22;;;;;;;14.70;11.20;;;;;;;5.30;63.92;101178.44;4994477;28;20554;-79
2023/01/28 15:58:29;;;;;;;16.63;11.45;;;;;;;5.24;62.65;101173.31;5011861;28;20474;-79
2023/01/28 16:01:25;;;;;;;16.45;11.55;;;;;;;5.22;61.98;101169.81;4993894;28;20418;-79
2023/01/28 16:04:03;;;;;;;20.20;11.50;;;;;;;5.17;62.41;101172.50;4952213;29;20090;-80
2023/01/28 16:06:45;;;;;;;17.60;12.38;;;;;;;5.13;62.74;101167.34;5013331;28;20077;-79
2023/01/28 16:09:42;;;;;;;17.67;12.48;;;;;;;5.03;62.40;101162.22;4995969;28;20068;-79
2023/01/28 16:12:12;;;;;;;18.92;11.93;;;;;;;4.99;63.09;101150.09;5006901;28;20395;-80
2023/01/28 16:15:04;;;;;;;19.02;11.85;;;;;;;4.86;62.46;101157.16;5013519;28;20078;-80
2023/01/28 16:17:43;;;;;;;16.02;11.68;;;;;;;4.78;62.68;101146.81;5012006;28;20061;-80
2023/01/28 16:20:23;;;;;;;16.05;11.25;;;;;;;4.67;62.69;101146.94;5011307;28;20534;-81
2023/01/28 16:22:53;;;;;;;17.50;11.27;;;;;;;4.60;63.77;101140.03;5011582;28;20149;-80